Sherwood, Oregon
Current Conditions -  °F | °C
As of 9:53 PM on Friday 19 Dec 2014 (Local Time) from KUAO Reporting Station
Overcast Overcast  
Wind Chill: 45°   Ceiling: 6000
Heat Index: 47°   Visibility: 10mi
Dew Point: 42°   Wind: 5mph
Humidity: 83%   Direction: 140°SE
Pressure: 29.93"   Gusts: NA
Location:  45.36°N, 122.84°W
Report Text: KUAO 200553Z AUTO 14004KT 10SM OVC060 08/06 A2993 RMK AO2 RAB24E34 SLP135 P0000 60001 T00830056 10100 20083 58024
Loading
Personal Weather Stations






























Interactive Weather Map New forecast layout! Learn more

10-Day Weather Forecast

Advertisements
Track Severe Weather on mobile